sensor_id;sensor_type;location;lat;lon;timestamp;temperature;humidity
24152;DHT22;12311;50.866;4.332;2022-12-18T00:01:59;-2.50;99.90
24152;DHT22;12311;50.866;4.332;2022-12-18T00:04:26;-2.30;99.90
24152;DHT22;12311;50.866;4.332;2022-12-18T00:06:52;-2.40;99.90
24152;DHT22;12311;50.866;4.332;2022-12-18T00:09:19;-2.40;99.90
24152;DHT22;12311;50.866;4.332;2022-12-18T00:11:44;-2.40;99.90
24152;DHT22;12311;50.866;4.332;2022-12-18T00:14:12;-2.40;99.90
24152;DHT22;12311;50.866;4.332;2022-12-18T00:16:38;-2.60;99.90
24152;DHT22;12311;50.866;4.332;2022-12-18T00:19:04;-2.60;99.90
24152;DHT22;12311;50.866;4.332;2022-12-18T00:21:31;-2.60;99.90
24152;DHT22;12311;50.866;4.332;2022-12-18T00:23:58;-2.70;99.90
24152;DHT22;12311;50.866;4.332;2022-12-18T00:26:29;-2.70;99.90
24152;DHT22;12311;50.866;4.332;2022-12-18T00:28:59;-2.70;99.90
24152;DHT22;12311;50.866;4.332;2022-12-18T00:31:26;-2.80;99.90
24152;DHT22;12311;50.866;4.332;2022-12-18T00:33:53;-2.90;99.90
24152;DHT22;12311;50.866;4.332;2022-12-18T00:36:22;-2.90;99.90
24152;DHT22;12311;50.866;4.332;2022-12-18T00:38:49;-3.00;99.90
24152;DHT22;12311;50.866;4.332;2022-12-18T00:41:16;-2.90;99.90
24152;DHT22;12311;50.866;4.332;2022-12-18T00:44:03;-3.00;99.90
24152;DHT22;12311;50.866;4.332;2022-12-18T00:46:30;-3.10;99.90
24152;DHT22;12311;50.866;4.332;2022-12-18T00:48:55;-3.00;99.90
24152;DHT22;12311;50.866;4.332;2022-12-18T00:51:21;-2.90;99.90
24152;DHT22;12311;50.866;4.332;2022-12-18T00:53:47;-2.90;99.90
24152;DHT22;12311;50.866;4.332;2022-12-18T00:56:12;-2.90;99.90
24152;DHT22;12311;50.866;4.332;2022-12-18T00:58:38;-3.10;99.90
24152;DHT22;12311;50.866;4.332;2022-12-18T01:01:05;-3.10;99.90
24152;DHT22;12311;50.866;4.332;2022-12-18T01:03:30;-3.10;99.90
24152;DHT22;12311;50.866;4.332;2022-12-18T01:05:56;-3.10;99.90
24152;DHT22;12311;50.866;4.332;2022-12-18T01:08:22;-3.20;99.90
24152;DHT22;12311;50.866;4.332;2022-12-18T01:10:48;-3.20;99.90
24152;DHT22;12311;50.866;4.332;2022-12-18T01:13:13;-3.20;99.90
24152;DHT22;12311;50.866;4.332;2022-12-18T01:15:39;-3.10;99.90
24152;DHT22;12311;50.866;4.332;2022-12-18T01:18:06;-3.10;99.90
24152;DHT22;12311;50.866;4.332;2022-12-18T01:20:31;-3.10;99.90
24152;DHT22;12311;50.866;4.332;2022-12-18T01:22:57;-3.10;99.90
24152;DHT22;12311;50.866;4.332;2022-12-18T01:25:23;-3.10;99.90
24152;DHT22;12311;50.866;4.332;2022-12-18T01:27:48;-3.00;99.90
24152;DHT22;12311;50.866;4.332;2022-12-18T01:30:14;-3.00;99.90
24152;DHT22;12311;50.866;4.332;2022-12-18T01:32:40;-3.00;99.90
24152;DHT22;12311;50.866;4.332;2022-12-18T01:35:06;-3.00;99.90
24152;DHT22;12311;50.866;4.332;2022-12-18T01:37:32;-3.00;99.90
24152;DHT22;12311;50.866;4.332;2022-12-18T01:39:58;-2.90;99.90
24152;DHT22;12311;50.866;4.332;2022-12-18T01:42:24;-2.90;99.90
24152;DHT22;12311;50.866;4.332;2022-12-18T01:47:48;-3.10;99.90
24152;DHT22;12311;50.866;4.332;2022-12-18T01:50:21;-3.20;99.90
24152;DHT22;12311;50.866;4.332;2022-12-18T01:52:52;-3.20;99.90
24152;DHT22;12311;50.866;4.332;2022-12-18T01:55:22;-3.20;99.90
24152;DHT22;12311;50.866;4.332;2022-12-18T01:57:52;-3.30;99.90
24152;DHT22;12311;50.866;4.332;2022-12-18T02:00:20;-3.30;99.90
24152;DHT22;12311;50.866;4.332;2022-12-18T02:02:47;-3.40;99.90
24152;DHT22;12311;50.866;4.332;2022-12-18T02:05:18;-3.40;99.90
24152;DHT22;12311;50.866;4.332;2022-12-18T02:08:33;-3.40;99.90
24152;DHT22;12311;50.866;4.332;2022-12-18T02:13:55;-3.60;99.90
24152;DHT22;12311;50.866;4.332;2022-12-18T02:18:56;-3.50;99.90
24152;DHT22;12311;50.866;4.332;2022-12-18T02:21:48;-3.50;99.90
24152;DHT22;12311;50.866;4.332;2022-12-18T02:24:35;-3.50;99.90
24152;DHT22;12311;50.866;4.332;2022-12-18T02:27:05;-3.50;99.90
24152;DHT22;12311;50.866;4.332;2022-12-18T02:29:43;-3.50;99.90
24152;DHT22;12311;50.866;4.332;2022-12-18T02:32:15;-3.50;99.90
24152;DHT22;12311;50.866;4.332;2022-12-18T02:34:43;-3.50;99.90
24152;DHT22;12311;50.866;4.332;2022-12-18T02:37:12;-3.50;99.90
24152;DHT22;12311;50.866;4.332;2022-12-18T02:39:42;-3.50;99.90
24152;DHT22;12311;50.866;4.332;2022-12-18T02:42:08;-3.50;99.90
24152;DHT22;12311;50.866;4.332;2022-12-18T02:44:42;-3.50;99.90
24152;DHT22;12311;50.866;4.332;2022-12-18T02:47:13;-3.60;99.90
24152;DHT22;12311;50.866;4.332;2022-12-18T02:57:55;-3.80;99.90
24152;DHT22;12311;50.866;4.332;2022-12-18T03:00:28;-3.70;99.90
24152;DHT22;12311;50.866;4.332;2022-12-18T03:03:16;-3.60;99.90
24152;DHT22;12311;50.866;4.332;2022-12-18T03:05:52;-3.50;99.90
24152;DHT22;12311;50.866;4.332;2022-12-18T03:08:27;-3.60;99.90
24152;DHT22;12311;50.866;4.332;2022-12-18T03:11:04;-3.50;99.90
24152;DHT22;12311;50.866;4.332;2022-12-18T03:13:35;-3.60;99.90
24152;DHT22;12311;50.866;4.332;2022-12-18T03:16:03;-3.60;99.90
24152;DHT22;12311;50.866;4.332;2022-12-18T03:18:58;-3.60;99.90
24152;DHT22;12311;50.866;4.332;2022-12-18T03:21:33;-3.60;99.90
24152;DHT22;12311;50.866;4.332;2022-12-18T03:24:01;-3.80;99.90
24152;DHT22;12311;50.866;4.332;2022-12-18T03:26:29;-3.90;99.90
24152;DHT22;12311;50.866;4.332;2022-12-18T03:29:06;-3.80;99.90
24152;DHT22;12311;50.866;4.332;2022-12-18T03:31:33;-3.80;99.90
24152;DHT22;12311;50.866;4.332;2022-12-18T03:34:01;-3.80;99.90
24152;DHT22;12311;50.866;4.332;2022-12-18T03:36:29;-3.80;99.90
24152;DHT22;12311;50.866;4.332;2022-12-18T03:38:55;-3.90;99.90
24152;DHT22;12311;50.866;4.332;2022-12-18T03:41:50;-3.90;99.90
24152;DHT22;12311;50.866;4.332;2022-12-18T03:44:35;-3.90;99.90
24152;DHT22;12311;50.866;4.332;2022-12-18T03:50:11;-3.90;99.90
24152;DHT22;12311;50.866;4.332;2022-12-18T03:53:09;-4.10;99.90
24152;DHT22;12311;50.866;4.332;2022-12-18T03:55:39;-4.00;99.90
24152;DHT22;12311;50.866;4.332;2022-12-18T03:58:07;-4.10;99.90
24152;DHT22;12311;50.866;4.332;2022-12-18T04:00:34;-4.10;99.90
24152;DHT22;12311;50.866;4.332;2022-12-18T04:03:01;-4.10;99.90
24152;DHT22;12311;50.866;4.332;2022-12-18T04:05:28;-4.10;99.90
24152;DHT22;12311;50.866;4.332;2022-12-18T04:07:56;-4.10;99.90
24152;DHT22;12311;50.866;4.332;2022-12-18T04:10:22;-4.10;99.90
24152;DHT22;12311;50.866;4.332;2022-12-18T04:12:48;-4.10;99.90
24152;DHT22;12311;50.866;4.332;2022-12-18T04:15:14;-4.10;99.90
24152;DHT22;12311;50.866;4.332;2022-12-18T04:17:48;-4.20;99.90
24152;DHT22;12311;50.866;4.332;2022-12-18T04:20:14;-4.20;99.90
24152;DHT22;12311;50.866;4.332;2022-12-18T04:22:40;-4.10;99.90
24152;DHT22;12311;50.866;4.332;2022-12-18T04:25:06;-4.30;99.90
24152;DHT22;12311;50.866;4.332;2022-12-18T04:27:32;-4.30;99.90
24152;DHT22;12311;50.866;4.332;2022-12-18T04:29:57;-4.30;99.90
24152;DHT22;12311;50.866;4.332;2022-12-18T04:32:23;-4.30;99.90
24152;DHT22;12311;50.866;4.332;2022-12-18T04:34:49;-4.20;99.90
24152;DHT22;12311;50.866;4.332;2022-12-18T04:37:14;-4.30;99.90
24152;DHT22;12311;50.866;4.332;2022-12-18T04:39:40;-4.30;99.90
24152;DHT22;12311;50.866;4.332;2022-12-18T04:42:06;-4.30;99.90
24152;DHT22;12311;50.866;4.332;2022-12-18T04:44:31;-4.20;99.90
24152;DHT22;12311;50.866;4.332;2022-12-18T04:46:57;-4.20;99.90
24152;DHT22;12311;50.866;4.332;2022-12-18T04:49:23;-4.30;99.90
24152;DHT22;12311;50.866;4.332;2022-12-18T04:51:48;-4.30;99.90
24152;DHT22;12311;50.866;4.332;2022-12-18T04:54:14;-4.30;99.90
24152;DHT22;12311;50.866;4.332;2022-12-18T04:56:40;-4.30;99.90
24152;DHT22;12311;50.866;4.332;2022-12-18T04:59:05;-4.10;99.90
24152;DHT22;12311;50.866;4.332;2022-12-18T05:01:31;-4.20;99.90
24152;DHT22;12311;50.866;4.332;2022-12-18T05:03:57;-4.20;99.90
24152;DHT22;12311;50.866;4.332;2022-12-18T05:06:22;-4.20;99.90
24152;DHT22;12311;50.866;4.332;2022-12-18T05:08:48;-4.30;99.90
24152;DHT22;12311;50.866;4.332;2022-12-18T05:11:15;-4.20;99.90
24152;DHT22;12311;50.866;4.332;2022-12-18T05:13:41;-4.10;99.90
24152;DHT22;12311;50.866;4.332;2022-12-18T05:16:07;-4.20;99.90
24152;DHT22;12311;50.866;4.332;2022-12-18T05:18:33;-4.20;99.90
24152;DHT22;12311;50.866;4.332;2022-12-18T05:21:00;-4.10;99.90
24152;DHT22;12311;50.866;4.332;2022-12-18T05:23:26;-4.10;99.90
24152;DHT22;12311;50.866;4.332;2022-12-18T05:25:53;-4.00;99.90
24152;DHT22;12311;50.866;4.332;2022-12-18T05:28:19;-4.00;99.90
24152;DHT22;12311;50.866;4.332;2022-12-18T05:30:52;-4.00;99.90
24152;DHT22;12311;50.866;4.332;2022-12-18T05:33:19;-4.00;99.90
24152;DHT22;12311;50.866;4.332;2022-12-18T05:35:51;-4.00;99.90
24152;DHT22;12311;50.866;4.332;2022-12-18T05:38:18;-4.10;99.90
24152;DHT22;12311;50.866;4.332;2022-12-18T05:40:43;-4.10;99.90
24152;DHT22;12311;50.866;4.332;2022-12-18T05:43:10;-4.10;99.90
24152;DHT22;12311;50.866;4.332;2022-12-18T05:45:39;-4.10;99.90
24152;DHT22;12311;50.866;4.332;2022-12-18T05:48:07;-4.10;99.90
24152;DHT22;12311;50.866;4.332;2022-12-18T05:50:37;-4.10;99.90
24152;DHT22;12311;50.866;4.332;2022-12-18T05:53:04;-4.10;99.90
24152;DHT22;12311;50.866;4.332;2022-12-18T05:55:36;-4.00;99.90
24152;DHT22;12311;50.866;4.332;2022-12-18T05:58:03;-4.00;99.90
24152;DHT22;12311;50.866;4.332;2022-12-18T06:00:29;-4.00;99.90
24152;DHT22;12311;50.866;4.332;2022-12-18T06:02:55;-4.10;99.90
24152;DHT22;12311;50.866;4.332;2022-12-18T06:05:21;-4.20;99.90
24152;DHT22;12311;50.866;4.332;2022-12-18T06:07:47;-4.20;99.90
24152;DHT22;12311;50.866;4.332;2022-12-18T06:10:12;-4.30;99.90
24152;DHT22;12311;50.866;4.332;2022-12-18T06:12:38;-4.20;99.90
24152;DHT22;12311;50.866;4.332;2022-12-18T06:15:04;-4.20;99.90
24152;DHT22;12311;50.866;4.332;2022-12-18T06:17:31;-4.20;99.90
24152;DHT22;12311;50.866;4.332;2022-12-18T06:19:57;-4.10;99.90
24152;DHT22;12311;50.866;4.332;2022-12-18T06:22:23;-4.10;99.90
24152;DHT22;12311;50.866;4.332;2022-12-18T06:24:49;-4.10;99.90
24152;DHT22;12311;50.866;4.332;2022-12-18T06:27:15;-4.20;99.90
24152;DHT22;12311;50.866;4.332;2022-12-18T06:29:40;-4.20;99.90
24152;DHT22;12311;50.866;4.332;2022-12-18T06:32:06;-4.20;99.90
24152;DHT22;12311;50.866;4.332;2022-12-18T06:34:32;-4.20;99.90
24152;DHT22;12311;50.866;4.332;2022-12-18T06:36:59;-4.20;99.90
24152;DHT22;12311;50.866;4.332;2022-12-18T06:39:27;-4.10;99.90
24152;DHT22;12311;50.866;4.332;2022-12-18T06:41:52;-4.10;99.90
24152;DHT22;12311;50.866;4.332;2022-12-18T06:44:18;-4.10;99.90
24152;DHT22;12311;50.866;4.332;2022-12-18T06:46:44;-4.00;99.90
24152;DHT22;12311;50.866;4.332;2022-12-18T06:49:10;-4.00;99.90
24152;DHT22;12311;50.866;4.332;2022-12-18T06:51:35;-4.00;99.90
24152;DHT22;12311;50.866;4.332;2022-12-18T06:54:01;-4.00;99.90
24152;DHT22;12311;50.866;4.332;2022-12-18T06:56:27;-4.00;99.90
24152;DHT22;12311;50.866;4.332;2022-12-18T06:58:53;-4.00;99.90
24152;DHT22;12311;50.866;4.332;2022-12-18T07:01:19;-4.10;99.90
24152;DHT22;12311;50.866;4.332;2022-12-18T07:03:45;-4.10;99.90
24152;DHT22;12311;50.866;4.332;2022-12-18T07:06:21;-4.10;99.90
24152;DHT22;12311;50.866;4.332;2022-12-18T07:08:47;-4.00;99.90
24152;DHT22;12311;50.866;4.332;2022-12-18T07:11:14;-4.00;99.90
24152;DHT22;12311;50.866;4.332;2022-12-18T07:13:40;-4.00;99.90
24152;DHT22;12311;50.866;4.332;2022-12-18T07:16:14;-4.10;99.90
24152;DHT22;12311;50.866;4.332;2022-12-18T07:18:40;-4.10;99.90
24152;DHT22;12311;50.866;4.332;2022-12-18T07:21:08;-4.10;99.90
24152;DHT22;12311;50.866;4.332;2022-12-18T07:23:35;-4.00;99.90
24152;DHT22;12311;50.866;4.332;2022-12-18T07:26:05;-4.00;99.90
24152;DHT22;12311;50.866;4.332;2022-12-18T07:28:32;-4.00;99.90
24152;DHT22;12311;50.866;4.332;2022-12-18T07:30:58;-3.90;99.90
24152;DHT22;12311;50.866;4.332;2022-12-18T07:33:24;-3.80;99.90
24152;DHT22;12311;50.866;4.332;2022-12-18T07:35:50;-3.80;99.90
24152;DHT22;12311;50.866;4.332;2022-12-18T07:38:16;-3.90;99.90
24152;DHT22;12311;50.866;4.332;2022-12-18T07:40:41;-4.00;99.90
24152;DHT22;12311;50.866;4.332;2022-12-18T07:43:07;-3.80;99.90
24152;DHT22;12311;50.866;4.332;2022-12-18T07:45:33;-4.00;99.90
24152;DHT22;12311;50.866;4.332;2022-12-18T07:47:58;-4.00;99.90
24152;DHT22;12311;50.866;4.332;2022-12-18T07:50:24;-4.10;99.90
24152;DHT22;12311;50.866;4.332;2022-12-18T07:52:49;-4.10;99.90
24152;DHT22;12311;50.866;4.332;2022-12-18T07:55:15;-4.10;99.90
24152;DHT22;12311;50.866;4.332;2022-12-18T07:57:41;-4.10;99.90
24152;DHT22;12311;50.866;4.332;2022-12-18T08:00:07;-4.10;99.90
24152;DHT22;12311;50.866;4.332;2022-12-18T08:02:33;-4.10;99.90
24152;DHT22;12311;50.866;4.332;2022-12-18T08:04:59;-4.20;99.90
24152;DHT22;12311;50.866;4.332;2022-12-18T08:07:24;-4.10;99.90
24152;DHT22;12311;50.866;4.332;2022-12-18T08:09:50;-4.00;99.90
24152;DHT22;12311;50.866;4.332;2022-12-18T08:12:16;-4.00;99.90
24152;DHT22;12311;50.866;4.332;2022-12-18T08:14:41;-3.90;99.90
24152;DHT22;12311;50.866;4.332;2022-12-18T08:17:07;-3.70;99.90
24152;DHT22;12311;50.866;4.332;2022-12-18T08:19:33;-3.50;99.90
24152;DHT22;12311;50.866;4.332;2022-12-18T08:21:58;-3.30;99.90
24152;DHT22;12311;50.866;4.332;2022-12-18T08:24:24;-3.20;99.90
24152;DHT22;12311;50.866;4.332;2022-12-18T08:26:49;-3.00;99.90
24152;DHT22;12311;50.866;4.332;2022-12-18T08:29:15;-2.80;99.90
24152;DHT22;12311;50.866;4.332;2022-12-18T08:31:41;-2.60;99.90
24152;DHT22;12311;50.866;4.332;2022-12-18T08:34:07;-2.40;99.90
24152;DHT22;12311;50.866;4.332;2022-12-18T08:36:33;-2.30;99.90
24152;DHT22;12311;50.866;4.332;2022-12-18T08:38:59;-2.20;99.90
24152;DHT22;12311;50.866;4.332;2022-12-18T08:41:25;-2.00;99.90
24152;DHT22;12311;50.866;4.332;2022-12-18T08:43:51;-1.90;99.90
24152;DHT22;12311;50.866;4.332;2022-12-18T08:46:40;-1.80;99.90
24152;DHT22;12311;50.866;4.332;2022-12-18T08:49:06;-1.70;99.90
24152;DHT22;12311;50.866;4.332;2022-12-18T08:51:33;-1.70;99.90
24152;DHT22;12311;50.866;4.332;2022-12-18T08:53:59;-1.60;99.90
24152;DHT22;12311;50.866;4.332;2022-12-18T08:56:24;-1.40;99.90
24152;DHT22;12311;50.866;4.332;2022-12-18T08:58:54;-1.20;99.90
24152;DHT22;12311;50.866;4.332;2022-12-18T09:01:21;-1.10;99.90
24152;DHT22;12311;50.866;4.332;2022-12-18T09:03:47;-1.10;99.90
24152;DHT22;12311;50.866;4.332;2022-12-18T09:06:17;-1.00;99.90
24152;DHT22;12311;50.866;4.332;2022-12-18T09:08:44;-0.90;99.90
24152;DHT22;12311;50.866;4.332;2022-12-18T09:11:18;-0.70;99.90
24152;DHT22;12311;50.866;4.332;2022-12-18T09:13:44;-0.60;99.90
24152;DHT22;12311;50.866;4.332;2022-12-18T09:16:10;-0.60;99.90
24152;DHT22;12311;50.866;4.332;2022-12-18T09:18:35;-0.60;99.90
24152;DHT22;12311;50.866;4.332;2022-12-18T09:21:14;-0.60;99.90
24152;DHT22;12311;50.866;4.332;2022-12-18T09:23:41;-0.50;99.90
24152;DHT22;12311;50.866;4.332;2022-12-18T09:26:07;-0.40;99.90
24152;DHT22;12311;50.866;4.332;2022-12-18T09:28:33;-0.30;99.90
24152;DHT22;12311;50.866;4.332;2022-12-18T09:31:04;-0.20;99.90
24152;DHT22;12311;50.866;4.332;2022-12-18T09:33:31;-0.10;99.90
24152;DHT22;12311;50.866;4.332;2022-12-18T09:35:56;0.00;99.90
24152;DHT22;12311;50.866;4.332;2022-12-18T09:38:22;0.00;99.90
24152;DHT22;12311;50.866;4.332;2022-12-18T09:40:53;0.20;99.90
24152;DHT22;12311;50.866;4.332;2022-12-18T09:46:11;0.50;99.90
24152;DHT22;12311;50.866;4.332;2022-12-18T09:48:44;0.50;99.90
24152;DHT22;12311;50.866;4.332;2022-12-18T09:51:15;0.60;99.90
24152;DHT22;12311;50.866;4.332;2022-12-18T09:53:53;0.70;99.90
24152;DHT22;12311;50.866;4.332;2022-12-18T09:56:22;0.70;99.90
24152;DHT22;12311;50.866;4.332;2022-12-18T09:58:59;0.90;99.90
24152;DHT22;12311;50.866;4.332;2022-12-18T10:01:26;0.90;99.90
24152;DHT22;12311;50.866;4.332;2022-12-18T10:03:53;1.10;99.90
24152;DHT22;12311;50.866;4.332;2022-12-18T10:07:03;1.10;99.90
24152;DHT22;12311;50.866;4.332;2022-12-18T10:12:18;1.10;99.90
24152;DHT22;12311;50.866;4.332;2022-12-18T10:15:17;1.20;99.90
24152;DHT22;12311;50.866;4.332;2022-12-18T10:20:41;1.50;99.90
24152;DHT22;12311;50.866;4.332;2022-12-18T10:23:28;1.70;99.90
24152;DHT22;12311;50.866;4.332;2022-12-18T10:26:05;1.70;99.90
24152;DHT22;12311;50.866;4.332;2022-12-18T10:28:33;1.70;99.90
24152;DHT22;12311;50.866;4.332;2022-12-18T10:31:00;1.90;99.90
24152;DHT22;12311;50.866;4.332;2022-12-18T10:33:30;1.90;99.90
24152;DHT22;12311;50.866;4.332;2022-12-18T10:35:57;2.00;99.90
24152;DHT22;12311;50.866;4.332;2022-12-18T10:41:00;2.10;99.90
24152;DHT22;12311;50.866;4.332;2022-12-18T10:43:33;2.20;99.90
24152;DHT22;12311;50.866;4.332;2022-12-18T10:46:19;2.30;99.90
24152;DHT22;12311;50.866;4.332;2022-12-18T10:48:52;2.30;99.90
24152;DHT22;12311;50.866;4.332;2022-12-18T10:53:59;2.40;99.90
24152;DHT22;12311;50.866;4.332;2022-12-18T10:56:28;2.40;99.90
24152;DHT22;12311;50.866;4.332;2022-12-18T10:59:05;2.40;99.90
24152;DHT22;12311;50.866;4.332;2022-12-18T11:01:52;2.50;99.90
24152;DHT22;12311;50.866;4.332;2022-12-18T11:04:27;2.50;99.90
24152;DHT22;12311;50.866;4.332;2022-12-18T11:07:05;2.40;99.90
24152;DHT22;12311;50.866;4.332;2022-12-18T11:09:39;2.20;99.90
24152;DHT22;12311;50.866;4.332;2022-12-18T11:12:23;1.80;99.90
24152;DHT22;12311;50.866;4.332;2022-12-18T11:14:51;1.60;99.90
24152;DHT22;12311;50.866;4.332;2022-12-18T11:17:34;1.50;99.90
24152;DHT22;12311;50.866;4.332;2022-12-18T11:23:02;1.50;99.90
24152;DHT22;12311;50.866;4.332;2022-12-18T11:25:29;1.40;99.90
24152;DHT22;12311;50.866;4.332;2022-12-18T11:28:01;1.40;99.90
24152;DHT22;12311;50.866;4.332;2022-12-18T11:30:32;1.50;99.90
24152;DHT22;12311;50.866;4.332;2022-12-18T11:33:03;1.40;99.90
24152;DHT22;12311;50.866;4.332;2022-12-18T11:38:27;1.50;99.90
24152;DHT22;12311;50.866;4.332;2022-12-18T11:43:52;1.60;99.90
24152;DHT22;12311;50.866;4.332;2022-12-18T11:46:38;1.70;99.90
24152;DHT22;12311;50.866;4.332;2022-12-18T11:49:18;1.60;99.90
24152;DHT22;12311;50.866;4.332;2022-12-18T11:52:09;1.50;99.90
24152;DHT22;12311;50.866;4.332;2022-12-18T11:54:39;1.50;99.90
24152;DHT22;12311;50.866;4.332;2022-12-18T12:00:16;1.60;99.90
24152;DHT22;12311;50.866;4.332;2022-12-18T12:03:12;1.60;99.90
24152;DHT22;12311;50.866;4.332;2022-12-18T12:16:37;1.90;99.90
24152;DHT22;12311;50.866;4.332;2022-12-18T12:19:35;2.00;99.90
24152;DHT22;12311;50.866;4.332;2022-12-18T12:22:40;2.10;99.90
24152;DHT22;12311;50.866;4.332;2022-12-18T12:38:47;1.90;99.90
24152;DHT22;12311;50.866;4.332;2022-12-18T12:41:22;1.80;99.90
24152;DHT22;12311;50.866;4.332;2022-12-18T12:44:12;1.90;99.90
24152;DHT22;12311;50.866;4.332;2022-12-18T12:46:41;1.90;99.90
24152;DHT22;12311;50.866;4.332;2022-12-18T12:49:15;2.00;99.90
24152;DHT22;12311;50.866;4.332;2022-12-18T12:52:32;2.20;99.90
24152;DHT22;12311;50.866;4.332;2022-12-18T12:54:38;2.20;99.90
24152;DHT22;12311;50.866;4.332;2022-12-18T12:57:18;2.20;99.90
24152;DHT22;12311;50.866;4.332;2022-12-18T13:00:20;2.20;99.90
24152;DHT22;12311;50.866;4.332;2022-12-18T13:05:58;2.20;99.90
24152;DHT22;12311;50.866;4.332;2022-12-18T13:08:30;2.30;99.90
24152;DHT22;12311;50.866;4.332;2022-12-18T13:10:58;2.40;99.90
24152;DHT22;12311;50.866;4.332;2022-12-18T13:13:55;2.30;99.90
24152;DHT22;12311;50.866;4.332;2022-12-18T13:16:23;2.40;99.90
24152;DHT22;12311;50.866;4.332;2022-12-18T13:18:56;2.20;99.90
24152;DHT22;12311;50.866;4.332;2022-12-18T13:21:32;2.20;99.90
24152;DHT22;12311;50.866;4.332;2022-12-18T13:24:15;2.10;99.90
24152;DHT22;12311;50.866;4.332;2022-12-18T13:26:47;2.20;99.90
24152;DHT22;12311;50.866;4.332;2022-12-18T13:29:41;2.30;99.90
24152;DHT22;12311;50.866;4.332;2022-12-18T13:32:24;2.10;99.90
24152;DHT22;12311;50.866;4.332;2022-12-18T13:37:54;2.00;99.90
24152;DHT22;12311;50.866;4.332;2022-12-18T13:45:46;1.80;99.90
24152;DHT22;12311;50.866;4.332;2022-12-18T13:48:22;1.80;99.90
24152;DHT22;12311;50.866;4.332;2022-12-18T13:51:00;1.80;99.90
24152;DHT22;12311;50.866;4.332;2022-12-18T13:53:31;1.70;99.90
24152;DHT22;12311;50.866;4.332;2022-12-18T13:55:58;1.70;99.90
24152;DHT22;12311;50.866;4.332;2022-12-18T13:58:24;1.70;99.90
24152;DHT22;12311;50.866;4.332;2022-12-18T14:00:50;1.70;99.90
24152;DHT22;12311;50.866;4.332;2022-12-18T14:03:27;1.60;99.90
24152;DHT22;12311;50.866;4.332;2022-12-18T14:06:07;1.60;99.90
24152;DHT22;12311;50.866;4.332;2022-12-18T14:08:37;1.70;99.90
24152;DHT22;12311;50.866;4.332;2022-12-18T14:11:04;1.60;99.90
24152;DHT22;12311;50.866;4.332;2022-12-18T14:13:37;1.70;99.90
24152;DHT22;12311;50.866;4.332;2022-12-18T14:16:05;1.70;99.90
24152;DHT22;12311;50.866;4.332;2022-12-18T14:18:56;1.70;99.90
24152;DHT22;12311;50.866;4.332;2022-12-18T14:21:26;1.70;99.90
24152;DHT22;12311;50.866;4.332;2022-12-18T14:26:33;1.80;99.90
24152;DHT22;12311;50.866;4.332;2022-12-18T14:34:33;1.80;99.90
24152;DHT22;12311;50.866;4.332;2022-12-18T14:36:59;1.70;99.90
24152;DHT22;12311;50.866;4.332;2022-12-18T14:39:24;1.80;99.90
24152;DHT22;12311;50.866;4.332;2022-12-18T14:41:51;1.80;99.90
24152;DHT22;12311;50.866;4.332;2022-12-18T14:44:17;1.70;99.90
24152;DHT22;12311;50.866;4.332;2022-12-18T14:46:44;1.70;99.90
24152;DHT22;12311;50.866;4.332;2022-12-18T14:49:31;1.70;99.90
24152;DHT22;12311;50.866;4.332;2022-12-18T14:51:59;1.60;99.90
24152;DHT22;12311;50.866;4.332;2022-12-18T14:54:27;1.70;99.90
24152;DHT22;12311;50.866;4.332;2022-12-18T14:57:00;1.70;99.90
24152;DHT22;12311;50.866;4.332;2022-12-18T14:59:27;1.80;99.90
24152;DHT22;12311;50.866;4.332;2022-12-18T15:02:01;1.80;99.90
24152;DHT22;12311;50.866;4.332;2022-12-18T15:04:35;1.90;99.90
24152;DHT22;12311;50.866;4.332;2022-12-18T15:12:43;2.00;99.90
24152;DHT22;12311;50.866;4.332;2022-12-18T15:23:22;1.90;99.90
24152;DHT22;12311;50.866;4.332;2022-12-18T15:25:56;1.90;99.90
24152;DHT22;12311;50.866;4.332;2022-12-18T15:28:37;1.80;99.90
24152;DHT22;12311;50.866;4.332;2022-12-18T15:31:19;1.70;99.90
24152;DHT22;12311;50.866;4.332;2022-12-18T15:36:18;1.80;99.90
24152;DHT22;12311;50.866;4.332;2022-12-18T15:38:51;1.80;99.90
24152;DHT22;12311;50.866;4.332;2022-12-18T15:41:19;1.80;99.90
24152;DHT22;12311;50.866;4.332;2022-12-18T15:43:47;1.80;99.90
24152;DHT22;12311;50.866;4.332;2022-12-18T15:46:19;1.90;99.90
24152;DHT22;12311;50.866;4.332;2022-12-18T15:48:49;1.90;99.90
24152;DHT22;12311;50.866;4.332;2022-12-18T15:53:51;2.00;99.90
24152;DHT22;12311;50.866;4.332;2022-12-18T15:56:18;2.00;99.90
24152;DHT22;12311;50.866;4.332;2022-12-18T15:59:04;2.10;99.90
24152;DHT22;12311;50.866;4.332;2022-12-18T16:01:30;2.10;99.90
24152;DHT22;12311;50.866;4.332;2022-12-18T16:03:59;2.10;99.90
24152;DHT22;12311;50.866;4.332;2022-12-18T16:06:24;2.10;99.90
24152;DHT22;12311;50.866;4.332;2022-12-18T16:08:50;2.10;99.90
24152;DHT22;12311;50.866;4.332;2022-12-18T16:11:24;2.10;99.90
24152;DHT22;12311;50.866;4.332;2022-12-18T16:16:45;2.20;99.90
24152;DHT22;12311;50.866;4.332;2022-12-18T16:19:10;2.10;99.90
24152;DHT22;12311;50.866;4.332;2022-12-18T16:21:36;2.10;99.90
24152;DHT22;12311;50.866;4.332;2022-12-18T16:24:02;2.00;99.90
24152;DHT22;12311;50.866;4.332;2022-12-18T16:26:27;2.10;99.90
24152;DHT22;12311;50.866;4.332;2022-12-18T16:28:53;2.00;99.90
24152;DHT22;12311;50.866;4.332;2022-12-18T16:31:19;2.00;99.90
24152;DHT22;12311;50.866;4.332;2022-12-18T16:33:46;2.10;99.90
24152;DHT22;12311;50.866;4.332;2022-12-18T16:36:11;2.00;99.90
24152;DHT22;12311;50.866;4.332;2022-12-18T16:38:37;2.10;99.90
24152;DHT22;12311;50.866;4.332;2022-12-18T16:41:18;2.20;99.90
24152;DHT22;12311;50.866;4.332;2022-12-18T16:43:56;2.20;99.90
24152;DHT22;12311;50.866;4.332;2022-12-18T16:46:22;2.20;99.90
24152;DHT22;12311;50.866;4.332;2022-12-18T16:48:48;2.30;99.90
24152;DHT22;12311;50.866;4.332;2022-12-18T16:51:13;2.20;99.90
24152;DHT22;12311;50.866;4.332;2022-12-18T16:53:39;2.20;99.90
24152;DHT22;12311;50.866;4.332;2022-12-18T16:56:05;2.10;99.90
24152;DHT22;12311;50.866;4.332;2022-12-18T16:58:31;2.20;99.90
24152;DHT22;12311;50.866;4.332;2022-12-18T17:00:57;2.10;99.90
24152;DHT22;12311;50.866;4.332;2022-12-18T17:03:22;2.10;99.90
24152;DHT22;12311;50.866;4.332;2022-12-18T17:05:48;2.10;99.90
24152;DHT22;12311;50.866;4.332;2022-12-18T17:08:13;2.10;99.90
24152;DHT22;12311;50.866;4.332;2022-12-18T17:10:39;2.10;99.90
24152;DHT22;12311;50.866;4.332;2022-12-18T17:13:04;2.10;99.90
24152;DHT22;12311;50.866;4.332;2022-12-18T17:15:34;2.20;99.90
24152;DHT22;12311;50.866;4.332;2022-12-18T17:18:01;2.20;99.90
24152;DHT22;12311;50.866;4.332;2022-12-18T17:20:27;2.10;99.90
24152;DHT22;12311;50.866;4.332;2022-12-18T17:22:52;2.10;99.90
24152;DHT22;12311;50.866;4.332;2022-12-18T17:25:18;2.10;99.90
24152;DHT22;12311;50.866;4.332;2022-12-18T17:27:44;2.00;99.90
24152;DHT22;12311;50.866;4.332;2022-12-18T17:30:10;2.00;99.90
24152;DHT22;12311;50.866;4.332;2022-12-18T17:32:36;2.00;99.90
24152;DHT22;12311;50.866;4.332;2022-12-18T17:35:01;2.10;99.90
24152;DHT22;12311;50.866;4.332;2022-12-18T17:37:27;2.10;99.90
24152;DHT22;12311;50.866;4.332;2022-12-18T17:39:53;2.10;99.90
24152;DHT22;12311;50.866;4.332;2022-12-18T17:42:18;2.00;99.90
24152;DHT22;12311;50.866;4.332;2022-12-18T17:44:44;2.00;99.90
24152;DHT22;12311;50.866;4.332;2022-12-18T17:47:11;2.00;99.90